Flight Track Log - Related Links

Times and Time Zones

All times are in EDT time to prevent confusion due to time zone crossing. See the EJA892 flight status page for this flight to view local times or setup timezone preferences in your user account.

Time Position Orientation Groundspeed Altitude Reporting Facility
EDT Latitude Longitude Course Direction KTS MPH feet Rate Location/Type
Sun 06:33:00 PM 48.2126 -102.4628 87° East  Level FlightAware Approximate
Sun 06:34:00 PM 48.2202 -102.2950 82° East  Level FlightAware Approximate
Sun 06:35:00 PM 48.2333 -102.1280 90° East  Level FlightAware Approximate
Sun 06:35:36 PM 48.1644 -103.6033 90° East 192 221 3,600  Level Minneapolis Center
Sun 06:36:00 PM 48.2334 -101.9596 90° East  Level FlightAware Approximate
Sun 06:36:38 PM 48.1683 -103.4983 87° East 256 295 6,000  Level Minneapolis Center
Sun 06:37:00 PM 48.2334 -101.7912 90° East  Level FlightAware Approximate
Sun 06:37:41 PM 48.1756 -103.3708 85° East 280 322 9,800  Level Salt Lake Center
Sun 06:38:00 PM 48.2500 -101.6259 90° East  Level FlightAware Approximate
Sun 06:38:42 PM 48.1817 -103.2386 86° East 300 345 13,400  Level Salt Lake Center
Sun 06:39:00 PM 48.2500 -101.4575 90° East  Level FlightAware Approximate
Sun 06:39:44 PM 48.1889 -103.1003 85° East 316 364 16,800  Level Salt Lake Center
Sun 06:40:00 PM 48.2500 -101.2890 90° East  Level FlightAware Approximate
Sun 06:40:47 PM 48.1717 -102.9597 100° East 334 384 19,800  Level Minneapolis Center
Sun 06:41:49 PM 48.1347 -102.7817 107° East 359 413 22,800 2,683 Climbing Minneapolis Center
Sun 06:42:50 PM 48.1025 -102.6292 108° East 371 427 25,300 2,244 Climbing Minneapolis Center
Sun 06:43:52 PM 48.0664 -102.4647 108° East 405 466 27,400 1,984 Climbing Minneapolis Center
Sun 06:44:54 PM 48.0306 -102.3000 108° East 415 478 29,400 1,790 Climbing Minneapolis Center
Sun 06:45:56 PM 47.9925 -102.1303 108° East 427 491 31,100 1,548 Climbing Minneapolis Center
Sun 06:46:58 PM 47.9544 -101.9561 108° East 440 506 32,600 1,548 Climbing Minneapolis Center
Sun 06:48:00 PM 47.9164 -101.7814 108° East 444 511 34,300 1,161 Climbing Minneapolis Center
Sun 06:49:02 PM 47.8694 -101.5667 108° East 454 522 35,000 339 Climbing Minneapolis Center
Sun 06:50:04 PM 47.8269 -101.3808 109° East 470 541 35,000  Level Minneapolis Center
Sun 06:51:06 PM 47.7883 -101.1961 107° East 472 543 35,000  Level Minneapolis Center
Sun 06:52:08 PM 47.7464 -101.0175 109° East 473 544 35,000  Level Minneapolis Center
Sun 06:53:10 PM 47.7081 -100.8358 107° East 468 539 35,000  Level Minneapolis Center
Sun 06:54:12 PM 47.6597 -100.6239 109° East 458 527 35,000  Level Minneapolis Center
Sun 06:55:13 PM 47.6181 -100.4561 110° East 442 509 35,000  Level Minneapolis Center
Sun 06:56:15 PM 47.5761 -100.2906 111° Southeast 437 503 35,000  Level Minneapolis Center
Sun 06:57:17 PM 47.5375 -100.1225 109° East 435 501 35,000  Level Minneapolis Center
Sun 06:58:19 PM 47.4936 -99.9475 110° East 442 509 35,000  Level Minneapolis Center
Sun 06:59:21 PM 47.4508 -99.7717 110° East 450 518 35,000  Level Minneapolis Center
Sun 07:00:24 PM 47.4011 -99.5636 109° East 452 520 35,000  Level Minneapolis Center
Sun 07:01:26 PM 47.3569 -99.3903 111° Southeast 452 520 35,000  Level Minneapolis Center
Sun 07:02:28 PM 47.3111 -99.2156 111° Southeast 455 524 35,000  Level Minneapolis Center
Sun 07:03:30 PM 47.2667 -99.0350 110° East 465 535 35,000  Level Minneapolis Center
Sun 07:04:32 PM 47.2208 -98.8567 111° Southeast 469 540 35,000  Level Minneapolis Center
Sun 07:05:33 PM 47.1656 -98.6425 111° Southeast 469 540 35,000  Level Minneapolis Center
Sun 07:06:35 PM 47.1200 -98.4633 110° East 472 543 35,000  Level Minneapolis Center
Sun 07:07:37 PM 47.0731 -98.2872 111° Southeast 470 541 35,000  Level Minneapolis Center
Sun 07:08:39 PM 47.0275 -98.1108 111° Southeast 468 539 35,000  Level Minneapolis Center
Sun 07:09:41 PM 46.9819 -97.9364 111° Southeast 465 535 35,000  Level Minneapolis Center
Sun 07:10:43 PM 46.9258 -97.7272 111° Southeast 464 534 35,000  Level Minneapolis Center
Sun 07:11:45 PM 46.8786 -97.5539 112° Southeast 463 533 35,000  Level Minneapolis Center
Sun 07:12:46 PM 46.8322 -97.3792 111° Southeast 464 534 35,000  Level Minneapolis Center
Sun 07:13:48 PM 46.7842 -97.2050 112° Southeast 464 534 35,000  Level Minneapolis Center
Sun 07:14:50 PM 46.7367 -97.0306 112° Southeast 465 535 35,000  Level Minneapolis Center
Sun 07:15:52 PM 46.6886 -96.8561 112° Southeast 465 535 35,000  Level Minneapolis Center
Sun 07:16:53 PM 46.6400 -96.6836 112° Southeast 464 534 35,000  Level Minneapolis Center
Sun 07:17:55 PM 46.5819 -96.4744 112° Southeast 466 536 35,000  Level Minneapolis Center
Sun 07:18:57 PM 46.5333 -96.3031 112° Southeast 463 533 35,000  Level Minneapolis Center
Sun 07:19:58 PM 46.4842 -96.1292 112° Southeast 466 536 35,000  Level Minneapolis Center
Sun 07:21:00 PM 46.4342 -95.9578 113° Southeast 464 534 35,000  Level Minneapolis Center
Sun 07:22:02 PM 46.3847 -95.7875 113° Southeast 460 529 35,000  Level Minneapolis Center
Sun 07:23:03 PM 46.3353 -95.6164 113° Southeast 461 531 35,000  Level Minneapolis Center
Sun 07:24:05 PM 46.2794 -95.4250 113° Southeast 465 535 35,000  Level Minneapolis Center
Sun 07:25:06 PM 46.2286 -95.2536 113° Southeast 467 537 35,000  Level Minneapolis Center
Sun 07:26:08 PM 46.1722 -95.0644 113° Southeast 469 540 35,000  Level Minneapolis Center
Sun 07:27:10 PM 46.1236 -94.9006 113° Southeast 466 536 35,000  Level Minneapolis Center
Sun 07:28:11 PM 46.0717 -94.7303 114° Southeast 465 535 35,000  Level Minneapolis Center
Sun 07:29:13 PM 46.0211 -94.5617 113° Southeast 461 531 35,000 -439 Level Minneapolis Center
Sun 07:30:14 PM 45.9689 -94.3947 114° Southeast 460 529 34,100 -2,244 Descending Minneapolis Center
Sun 07:31:16 PM 45.9078 -94.1925 113° Southeast 460 529 30,400 -3,171 Descending Minneapolis Center
Sun 07:32:17 PM 45.8531 -94.0156 114° Southeast 479 551 27,600 -2,683 Descending Minneapolis Center
Sun 07:33:19 PM 45.7947 -93.8361 115° Southeast 492 566 24,900 -2,565 Descending Minneapolis Center
Sun 07:34:21 PM 45.7022 -93.6922 133° Southeast 494 568 22,300 -2,634 Descending Minneapolis Center
Sun 07:35:22 PM 45.5811 -93.6039 153° Southeast 492 566 19,500 -2,585 Descending Minneapolis Center
Sun 07:36:24 PM 45.4589 -93.5403 160° South 471 542 17,000 -2,537 Descending Minneapolis Center
Sun 07:37:25 PM 45.3436 -93.4775 159° South 447 514 14,300 -2,585 Descending Minneapolis Center
Sun 07:38:27 PM 45.2117 -93.4072 159° South 421 484 11,700 -1,610 Descending Minneapolis Center
Sun 07:39:28 PM 45.1058 -93.3514 160° South 405 466 11,000 -1,220 Descending Minneapolis Center
Sun 07:40:30 PM 45.0231 -93.3058 159° South 321 369 9,200 -1,463 Descending Minneapolis Center
Sun 07:41:31 PM 44.9719 -93.2142 128° Southeast 298 343 8,000 -780 Descending Minneapolis Center
Sun 07:42:33 PM 44.9314 -93.1272 123° Southeast 254 292 7,600 -484 Descending Minneapolis Center
Sun 07:43:35 PM 44.8964 -93.0456 121° Southeast 242 278 7,000 -585 Descending Minneapolis Center
Sun 07:44:36 PM 44.8631 -92.9653 120° Southeast 238 274 6,400 -780 Descending Minneapolis Center
Sun 07:45:38 PM 44.8078 -92.9536 171° South 224 258 5,400 -1,024 Descending Minneapolis Center
Sun 07:46:39 PM 44.7850 -93.0153 243° Southwest 197 227 4,300 -1,220 Descending Minneapolis Center
Sun 07:47:41 PM 44.8231 -93.0844 308° West 189 217 2,900 -1,171 Descending Minneapolis Center
Sun 07:48:42 PM 44.8478 -93.1419 301° West 165 190 1,900 -829 Descending Minneapolis Center
Sun 07:49:44 PM 44.8658 -93.1831 302° West 127 146 1,200 -677 Descending Minneapolis Center
Sun 07:51:00 PM 44.8667 -93.2167 290° West  Level FlightAware Approximate
Sun 07:58:00 PM 44.8820 -93.2218 290° West  Level Estimated

Login

Don't have an account? Register now (free) for customized features, flight alerts, and more!